sensor_id;sensor_type;location;lat;lon;timestamp;P1;durP1;ratioP1;P2;durP2;ratioP2
76210;SDS011;65003;49.518;11.280;2023-02-08T00:00:57;14.47;;;10.00;;
76210;SDS011;65003;49.518;11.280;2023-02-08T00:03:24;17.53;;;10.30;;
76210;SDS011;65003;49.518;11.280;2023-02-08T00:05:51;18.77;;;9.63;;
76210;SDS011;65003;49.518;11.280;2023-02-08T00:08:19;18.30;;;9.53;;
76210;SDS011;65003;49.518;11.280;2023-02-08T00:10:46;17.70;;;9.47;;
76210;SDS011;65003;49.518;11.280;2023-02-08T00:13:12;17.00;;;9.70;;
76210;SDS011;65003;49.518;11.280;2023-02-08T00:15:40;19.80;;;9.30;;
76210;SDS011;65003;49.518;11.280;2023-02-08T00:18:06;16.43;;;10.53;;
76210;SDS011;65003;49.518;11.280;2023-02-08T00:20:34;20.07;;;9.23;;
76210;SDS011;65003;49.518;11.280;2023-02-08T00:23:01;16.73;;;10.20;;
76210;SDS011;65003;49.518;11.280;2023-02-08T00:25:29;14.10;;;9.50;;
76210;SDS011;65003;49.518;11.280;2023-02-08T00:27:55;16.07;;;10.73;;
76210;SDS011;65003;49.518;11.280;2023-02-08T00:30:22;14.87;;;9.07;;
76210;SDS011;65003;49.518;11.280;2023-02-08T00:32:48;17.10;;;10.07;;
76210;SDS011;65003;49.518;11.280;2023-02-08T00:35:15;20.27;;;10.27;;
76210;SDS011;65003;49.518;11.280;2023-02-08T00:37:42;15.53;;;9.83;;
76210;SDS011;65003;49.518;11.280;2023-02-08T00:40:09;14.97;;;9.87;;
76210;SDS011;65003;49.518;11.280;2023-02-08T00:42:37;20.33;;;10.47;;
76210;SDS011;65003;49.518;11.280;2023-02-08T00:45:03;17.10;;;9.97;;
76210;SDS011;65003;49.518;11.280;2023-02-08T00:47:30;18.37;;;9.87;;
76210;SDS011;65003;49.518;11.280;2023-02-08T00:49:57;18.10;;;9.97;;
76210;SDS011;65003;49.518;11.280;2023-02-08T00:52:23;21.03;;;10.43;;
76210;SDS011;65003;49.518;11.280;2023-02-08T00:54:52;19.20;;;9.33;;
76210;SDS011;65003;49.518;11.280;2023-02-08T00:57:19;19.13;;;9.87;;
76210;SDS011;65003;49.518;11.280;2023-02-08T00:59:46;16.60;;;10.10;;
76210;SDS011;65003;49.518;11.280;2023-02-08T01:02:13;16.47;;;9.23;;
76210;SDS011;65003;49.518;11.280;2023-02-08T01:04:40;17.90;;;9.50;;
76210;SDS011;65003;49.518;11.280;2023-02-08T01:07:06;16.97;;;9.73;;
76210;SDS011;65003;49.518;11.280;2023-02-08T01:09:33;19.73;;;10.10;;
76210;SDS011;65003;49.518;11.280;2023-02-08T01:11:59;16.07;;;9.87;;
76210;SDS011;65003;49.518;11.280;2023-02-08T01:14:26;19.30;;;8.87;;
76210;SDS011;65003;49.518;11.280;2023-02-08T01:16:53;19.57;;;9.17;;
76210;SDS011;65003;49.518;11.280;2023-02-08T01:19:19;18.90;;;11.37;;
76210;SDS011;65003;49.518;11.280;2023-02-08T01:21:46;17.67;;;9.57;;
76210;SDS011;65003;49.518;11.280;2023-02-08T01:24:13;18.83;;;10.37;;
76210;SDS011;65003;49.518;11.280;2023-02-08T01:26:39;19.33;;;10.07;;
76210;SDS011;65003;49.518;11.280;2023-02-08T01:29:06;22.40;;;10.43;;
76210;SDS011;65003;49.518;11.280;2023-02-08T01:31:36;20.13;;;10.77;;
76210;SDS011;65003;49.518;11.280;2023-02-08T01:34:02;18.50;;;10.27;;
76210;SDS011;65003;49.518;11.280;2023-02-08T01:36:29;15.13;;;8.83;;
76210;SDS011;65003;49.518;11.280;2023-02-08T01:38:57;20.53;;;9.63;;
76210;SDS011;65003;49.518;11.280;2023-02-08T01:41:29;21.30;;;9.63;;
76210;SDS011;65003;49.518;11.280;2023-02-08T01:46:31;17.37;;;9.40;;
76210;SDS011;65003;49.518;11.280;2023-02-08T01:49:01;17.23;;;10.07;;
76210;SDS011;65003;49.518;11.280;2023-02-08T01:51:39;16.07;;;9.73;;
76210;SDS011;65003;49.518;11.280;2023-02-08T01:54:04;19.07;;;10.00;;
76210;SDS011;65003;49.518;11.280;2023-02-08T01:56:32;18.53;;;10.80;;
76210;SDS011;65003;49.518;11.280;2023-02-08T01:58:58;20.00;;;10.50;;
76210;SDS011;65003;49.518;11.280;2023-02-08T02:01:25;17.20;;;10.00;;
76210;SDS011;65003;49.518;11.280;2023-02-08T02:03:54;16.17;;;9.80;;
76210;SDS011;65003;49.518;11.280;2023-02-08T02:06:21;17.40;;;9.90;;
76210;SDS011;65003;49.518;11.280;2023-02-08T02:08:50;17.60;;;10.50;;
76210;SDS011;65003;49.518;11.280;2023-02-08T02:11:14;18.70;;;10.03;;
76210;SDS011;65003;49.518;11.280;2023-02-08T02:13:42;16.40;;;9.67;;
76210;SDS011;65003;49.518;11.280;2023-02-08T02:16:08;16.30;;;10.50;;
76210;SDS011;65003;49.518;11.280;2023-02-08T02:18:35;19.87;;;10.47;;
76210;SDS011;65003;49.518;11.280;2023-02-08T02:21:11;18.80;;;9.93;;
76210;SDS011;65003;49.518;11.280;2023-02-08T02:23:45;19.70;;;10.90;;
76210;SDS011;65003;49.518;11.280;2023-02-08T02:26:34;21.50;;;10.37;;
76210;SDS011;65003;49.518;11.280;2023-02-08T02:29:14;17.03;;;9.73;;
76210;SDS011;65003;49.518;11.280;2023-02-08T02:31:53;19.10;;;10.00;;
76210;SDS011;65003;49.518;11.280;2023-02-08T02:34:27;21.47;;;10.17;;
76210;SDS011;65003;49.518;11.280;2023-02-08T02:37:05;16.30;;;9.67;;
76210;SDS011;65003;49.518;11.280;2023-02-08T02:42:11;18.67;;;9.30;;
76210;SDS011;65003;49.518;11.280;2023-02-08T02:45:04;20.83;;;11.23;;
76210;SDS011;65003;49.518;11.280;2023-02-08T02:47:51;15.33;;;8.90;;
76210;SDS011;65003;49.518;11.280;2023-02-08T02:50:22;22.13;;;10.40;;
76210;SDS011;65003;49.518;11.280;2023-02-08T02:52:58;16.17;;;10.13;;
76210;SDS011;65003;49.518;11.280;2023-02-08T02:55:24;16.47;;;9.60;;
76210;SDS011;65003;49.518;11.280;2023-02-08T02:57:51;22.00;;;9.60;;
76210;SDS011;65003;49.518;11.280;2023-02-08T03:00:20;23.00;;;10.93;;
76210;SDS011;65003;49.518;11.280;2023-02-08T03:02:48;18.10;;;11.00;;
76210;SDS011;65003;49.518;11.280;2023-02-08T03:05:14;19.57;;;10.17;;
76210;SDS011;65003;49.518;11.280;2023-02-08T03:07:47;16.33;;;9.17;;
76210;SDS011;65003;49.518;11.280;2023-02-08T03:10:16;18.07;;;10.50;;
76210;SDS011;65003;49.518;11.280;2023-02-08T03:12:59;17.27;;;10.47;;
76210;SDS011;65003;49.518;11.280;2023-02-08T03:15:39;17.53;;;10.57;;
76210;SDS011;65003;49.518;11.280;2023-02-08T03:18:28;15.63;;;8.80;;
76210;SDS011;65003;49.518;11.280;2023-02-08T03:21:08;16.47;;;9.40;;
76210;SDS011;65003;49.518;11.280;2023-02-08T03:23:38;18.57;;;10.60;;
76210;SDS011;65003;49.518;11.280;2023-02-08T03:29:59;20.37;;;11.40;;
76210;SDS011;65003;49.518;11.280;2023-02-08T03:31:40;20.07;;;9.93;;
76210;SDS011;65003;49.518;11.280;2023-02-08T03:34:05;19.13;;;9.57;;
76210;SDS011;65003;49.518;11.280;2023-02-08T03:36:39;21.63;;;11.20;;
76210;SDS011;65003;49.518;11.280;2023-02-08T03:39:05;18.00;;;10.87;;
76210;SDS011;65003;49.518;11.280;2023-02-08T03:41:32;17.57;;;10.57;;
76210;SDS011;65003;49.518;11.280;2023-02-08T03:43:59;20.97;;;10.50;;
76210;SDS011;65003;49.518;11.280;2023-02-08T03:46:26;19.50;;;10.07;;
76210;SDS011;65003;49.518;11.280;2023-02-08T03:49:07;18.20;;;10.20;;
76210;SDS011;65003;49.518;11.280;2023-02-08T03:51:34;19.97;;;9.80;;
76210;SDS011;65003;49.518;11.280;2023-02-08T03:54:01;18.93;;;10.37;;
76210;SDS011;65003;49.518;11.280;2023-02-08T03:56:34;26.73;;;11.27;;
76210;SDS011;65003;49.518;11.280;2023-02-08T03:59:02;21.83;;;10.40;;
76210;SDS011;65003;49.518;11.280;2023-02-08T04:01:29;14.80;;;10.07;;
76210;SDS011;65003;49.518;11.280;2023-02-08T04:03:58;20.13;;;10.93;;
76210;SDS011;65003;49.518;11.280;2023-02-08T04:06:24;19.53;;;10.43;;
76210;SDS011;65003;49.518;11.280;2023-02-08T04:08:51;22.47;;;11.07;;
76210;SDS011;65003;49.518;11.280;2023-02-08T04:11:17;21.33;;;10.73;;
76210;SDS011;65003;49.518;11.280;2023-02-08T04:13:44;21.30;;;10.30;;
76210;SDS011;65003;49.518;11.280;2023-02-08T04:16:11;19.10;;;10.53;;
76210;SDS011;65003;49.518;11.280;2023-02-08T04:18:37;18.80;;;9.83;;
76210;SDS011;65003;49.518;11.280;2023-02-08T04:21:04;17.10;;;9.93;;
76210;SDS011;65003;49.518;11.280;2023-02-08T04:23:30;20.77;;;11.07;;
76210;SDS011;65003;49.518;11.280;2023-02-08T04:25:57;20.13;;;11.60;;
76210;SDS011;65003;49.518;11.280;2023-02-08T04:28:24;23.20;;;12.03;;
76210;SDS011;65003;49.518;11.280;2023-02-08T04:30:53;23.73;;;10.73;;
76210;SDS011;65003;49.518;11.280;2023-02-08T04:33:17;21.70;;;11.00;;
76210;SDS011;65003;49.518;11.280;2023-02-08T04:35:44;20.43;;;10.83;;
76210;SDS011;65003;49.518;11.280;2023-02-08T04:38:11;20.70;;;11.33;;
76210;SDS011;65003;49.518;11.280;2023-02-08T04:40:38;21.57;;;11.30;;
76210;SDS011;65003;49.518;11.280;2023-02-08T04:43:05;23.57;;;11.20;;
76210;SDS011;65003;49.518;11.280;2023-02-08T04:45:32;19.63;;;10.80;;
76210;SDS011;65003;49.518;11.280;2023-02-08T04:47:59;18.73;;;11.03;;
76210;SDS011;65003;49.518;11.280;2023-02-08T04:50:26;23.10;;;11.93;;
76210;SDS011;65003;49.518;11.280;2023-02-08T04:52:52;22.57;;;11.30;;
76210;SDS011;65003;49.518;11.280;2023-02-08T04:55:19;21.43;;;10.57;;
76210;SDS011;65003;49.518;11.280;2023-02-08T04:57:46;21.17;;;11.23;;
76210;SDS011;65003;49.518;11.280;2023-02-08T05:00:13;23.17;;;13.87;;
76210;SDS011;65003;49.518;11.280;2023-02-08T05:02:41;21.97;;;12.87;;
76210;SDS011;65003;49.518;11.280;2023-02-08T05:05:09;22.02;;;13.64;;
76210;SDS011;65003;49.518;11.280;2023-02-08T05:07:35;19.57;;;12.27;;
76210;SDS011;65003;49.518;11.280;2023-02-08T05:10:03;21.70;;;11.60;;
76210;SDS011;65003;49.518;11.280;2023-02-08T05:12:29;22.83;;;11.70;;
76210;SDS011;65003;49.518;11.280;2023-02-08T05:14:55;20.13;;;11.17;;
76210;SDS011;65003;49.518;11.280;2023-02-08T05:17:22;22.03;;;12.50;;
76210;SDS011;65003;49.518;11.280;2023-02-08T05:19:49;21.40;;;12.30;;
76210;SDS011;65003;49.518;11.280;2023-02-08T05:22:16;20.23;;;11.50;;
76210;SDS011;65003;49.518;11.280;2023-02-08T05:24:43;23.60;;;13.60;;
76210;SDS011;65003;49.518;11.280;2023-02-08T05:27:10;21.07;;;12.97;;
76210;SDS011;65003;49.518;11.280;2023-02-08T05:29:36;25.10;;;13.43;;
76210;SDS011;65003;49.518;11.280;2023-02-08T05:32:03;24.93;;;13.87;;
76210;SDS011;65003;49.518;11.280;2023-02-08T05:34:30;22.57;;;13.80;;
76210;SDS011;65003;49.518;11.280;2023-02-08T05:36:57;21.13;;;13.53;;
76210;SDS011;65003;49.518;11.280;2023-02-08T05:39:23;24.23;;;13.33;;
76210;SDS011;65003;49.518;11.280;2023-02-08T05:41:50;23.77;;;12.57;;
76210;SDS011;65003;49.518;11.280;2023-02-08T05:44:18;32.98;;;17.32;;
76210;SDS011;65003;49.518;11.280;2023-02-08T05:46:44;27.83;;;14.73;;
76210;SDS011;65003;49.518;11.280;2023-02-08T05:49:11;28.57;;;15.03;;
76210;SDS011;65003;49.518;11.280;2023-02-08T05:51:38;25.70;;;15.90;;
76210;SDS011;65003;49.518;11.280;2023-02-08T05:54:05;31.63;;;18.17;;
76210;SDS011;65003;49.518;11.280;2023-02-08T05:56:32;21.53;;;13.77;;
76210;SDS011;65003;49.518;11.280;2023-02-08T05:59:00;24.40;;;13.73;;
76210;SDS011;65003;49.518;11.280;2023-02-08T06:01:26;23.77;;;13.30;;
76210;SDS011;65003;49.518;11.280;2023-02-08T06:03:53;28.80;;;13.00;;
76210;SDS011;65003;49.518;11.280;2023-02-08T06:06:20;21.97;;;12.17;;
76210;SDS011;65003;49.518;11.280;2023-02-08T06:08:46;26.17;;;12.13;;
76210;SDS011;65003;49.518;11.280;2023-02-08T06:11:12;28.73;;;13.47;;
76210;SDS011;65003;49.518;11.280;2023-02-08T06:13:39;22.80;;;12.10;;
76210;SDS011;65003;49.518;11.280;2023-02-08T06:16:06;27.97;;;13.40;;
76210;SDS011;65003;49.518;11.280;2023-02-08T06:18:32;25.37;;;12.73;;
76210;SDS011;65003;49.518;11.280;2023-02-08T06:20:59;26.47;;;14.43;;
76210;SDS011;65003;49.518;11.280;2023-02-08T06:23:26;22.87;;;12.47;;
76210;SDS011;65003;49.518;11.280;2023-02-08T06:25:52;23.07;;;13.27;;
76210;SDS011;65003;49.518;11.280;2023-02-08T06:28:19;27.77;;;13.87;;
76210;SDS011;65003;49.518;11.280;2023-02-08T06:30:47;27.30;;;14.30;;
76210;SDS011;65003;49.518;11.280;2023-02-08T06:33:15;27.53;;;13.70;;
76210;SDS011;65003;49.518;11.280;2023-02-08T06:35:44;27.57;;;13.83;;
76210;SDS011;65003;49.518;11.280;2023-02-08T06:38:11;29.40;;;14.23;;
76210;SDS011;65003;49.518;11.280;2023-02-08T06:40:37;26.43;;;14.60;;
76210;SDS011;65003;49.518;11.280;2023-02-08T06:43:04;32.47;;;15.83;;
76210;SDS011;65003;49.518;11.280;2023-02-08T06:45:30;25.80;;;14.43;;
76210;SDS011;65003;49.518;11.280;2023-02-08T06:47:57;28.03;;;14.50;;
76210;SDS011;65003;49.518;11.280;2023-02-08T06:50:24;34.77;;;14.37;;
76210;SDS011;65003;49.518;11.280;2023-02-08T06:52:50;29.00;;;15.23;;
76210;SDS011;65003;49.518;11.280;2023-02-08T06:55:17;28.57;;;15.17;;
76210;SDS011;65003;49.518;11.280;2023-02-08T06:57:43;29.17;;;14.07;;
76210;SDS011;65003;49.518;11.280;2023-02-08T07:00:10;30.70;;;14.73;;
76210;SDS011;65003;49.518;11.280;2023-02-08T07:02:37;28.43;;;15.27;;
76210;SDS011;65003;49.518;11.280;2023-02-08T07:05:04;27.70;;;15.80;;
76210;SDS011;65003;49.518;11.280;2023-02-08T07:07:31;25.97;;;13.83;;
76210;SDS011;65003;49.518;11.280;2023-02-08T07:09:58;28.63;;;15.43;;
76210;SDS011;65003;49.518;11.280;2023-02-08T07:12:25;28.17;;;14.90;;
76210;SDS011;65003;49.518;11.280;2023-02-08T07:14:51;24.60;;;15.00;;
76210;SDS011;65003;49.518;11.280;2023-02-08T07:17:18;26.57;;;14.70;;
76210;SDS011;65003;49.518;11.280;2023-02-08T07:19:44;25.80;;;15.63;;
76210;SDS011;65003;49.518;11.280;2023-02-08T07:22:11;29.80;;;15.13;;
76210;SDS011;65003;49.518;11.280;2023-02-08T07:24:38;24.67;;;14.70;;
76210;SDS011;65003;49.518;11.280;2023-02-08T07:27:06;26.43;;;15.50;;
76210;SDS011;65003;49.518;11.280;2023-02-08T07:29:34;29.97;;;16.47;;
76210;SDS011;65003;49.518;11.280;2023-02-08T07:32:00;29.00;;;15.53;;
76210;SDS011;65003;49.518;11.280;2023-02-08T07:34:27;30.47;;;15.80;;
76210;SDS011;65003;49.518;11.280;2023-02-08T07:36:54;31.30;;;16.47;;
76210;SDS011;65003;49.518;11.280;2023-02-08T07:39:21;26.17;;;15.90;;
76210;SDS011;65003;49.518;11.280;2023-02-08T07:41:47;29.83;;;15.43;;
76210;SDS011;65003;49.518;11.280;2023-02-08T07:44:14;30.23;;;16.40;;
76210;SDS011;65003;49.518;11.280;2023-02-08T07:46:41;30.37;;;16.60;;
76210;SDS011;65003;49.518;11.280;2023-02-08T07:49:07;30.17;;;15.17;;
76210;SDS011;65003;49.518;11.280;2023-02-08T07:51:34;32.97;;;15.10;;
76210;SDS011;65003;49.518;11.280;2023-02-08T07:54:01;28.00;;;14.40;;
76210;SDS011;65003;49.518;11.280;2023-02-08T07:56:27;31.13;;;16.60;;
76210;SDS011;65003;49.518;11.280;2023-02-08T07:58:54;29.27;;;15.80;;
76210;SDS011;65003;49.518;11.280;2023-02-08T08:01:20;30.30;;;15.73;;
76210;SDS011;65003;49.518;11.280;2023-02-08T08:03:47;29.43;;;15.47;;
76210;SDS011;65003;49.518;11.280;2023-02-08T08:06:14;29.73;;;15.07;;
76210;SDS011;65003;49.518;11.280;2023-02-08T08:08:40;30.93;;;14.67;;
76210;SDS011;65003;49.518;11.280;2023-02-08T08:11:09;29.44;;;15.84;;
76210;SDS011;65003;49.518;11.280;2023-02-08T08:13:35;29.37;;;15.10;;
76210;SDS011;65003;49.518;11.280;2023-02-08T08:16:02;23.50;;;14.43;;
76210;SDS011;65003;49.518;11.280;2023-02-08T08:18:29;31.33;;;16.60;;
76210;SDS011;65003;49.518;11.280;2023-02-08T08:20:55;30.13;;;16.43;;
76210;SDS011;65003;49.518;11.280;2023-02-08T08:23:22;28.37;;;15.90;;
76210;SDS011;65003;49.518;11.280;2023-02-08T08:25:49;27.30;;;15.50;;
76210;SDS011;65003;49.518;11.280;2023-02-08T08:28:15;27.20;;;16.10;;
76210;SDS011;65003;49.518;11.280;2023-02-08T08:30:42;27.97;;;15.07;;
76210;SDS011;65003;49.518;11.280;2023-02-08T08:33:11;28.00;;;15.07;;
76210;SDS011;65003;49.518;11.280;2023-02-08T08:35:40;23.37;;;14.23;;
76210;SDS011;65003;49.518;11.280;2023-02-08T08:38:06;29.47;;;15.30;;
76210;SDS011;65003;49.518;11.280;2023-02-08T08:40:33;27.30;;;15.30;;
76210;SDS011;65003;49.518;11.280;2023-02-08T08:43:00;29.67;;;14.87;;
76210;SDS011;65003;49.518;11.280;2023-02-08T08:45:27;29.80;;;15.83;;
76210;SDS011;65003;49.518;11.280;2023-02-08T08:47:54;29.50;;;15.10;;
76210;SDS011;65003;49.518;11.280;2023-02-08T08:50:21;28.40;;;15.57;;
76210;SDS011;65003;49.518;11.280;2023-02-08T08:52:48;33.67;;;15.97;;
76210;SDS011;65003;49.518;11.280;2023-02-08T08:55:14;30.80;;;16.37;;
76210;SDS011;65003;49.518;11.280;2023-02-08T08:57:41;26.87;;;16.20;;
76210;SDS011;65003;49.518;11.280;2023-02-08T09:00:08;27.17;;;15.47;;
76210;SDS011;65003;49.518;11.280;2023-02-08T09:02:35;31.17;;;15.77;;
76210;SDS011;65003;49.518;11.280;2023-02-08T09:05:02;26.70;;;15.77;;
76210;SDS011;65003;49.518;11.280;2023-02-08T09:07:28;26.50;;;14.70;;
76210;SDS011;65003;49.518;11.280;2023-02-08T09:09:55;28.93;;;15.13;;
76210;SDS011;65003;49.518;11.280;2023-02-08T09:12:21;30.87;;;15.87;;
76210;SDS011;65003;49.518;11.280;2023-02-08T09:14:49;24.33;;;14.70;;
76210;SDS011;65003;49.518;11.280;2023-02-08T09:17:15;25.40;;;15.63;;
76210;SDS011;65003;49.518;11.280;2023-02-08T09:19:42;27.07;;;14.87;;
76210;SDS011;65003;49.518;11.280;2023-02-08T09:22:09;26.17;;;14.77;;
76210;SDS011;65003;49.518;11.280;2023-02-08T09:24:35;25.67;;;15.70;;
76210;SDS011;65003;49.518;11.280;2023-02-08T09:27:02;25.07;;;15.77;;
76210;SDS011;65003;49.518;11.280;2023-02-08T09:29:28;25.10;;;15.43;;
76210;SDS011;65003;49.518;11.280;2023-02-08T09:31:55;25.73;;;15.50;;
76210;SDS011;65003;49.518;11.280;2023-02-08T09:34:22;26.47;;;16.10;;
76210;SDS011;65003;49.518;11.280;2023-02-08T09:36:48;24.93;;;15.07;;
76210;SDS011;65003;49.518;11.280;2023-02-08T09:39:16;27.97;;;15.80;;
76210;SDS011;65003;49.518;11.280;2023-02-08T09:41:47;25.07;;;15.37;;
76210;SDS011;65003;49.518;11.280;2023-02-08T09:44:16;24.17;;;14.23;;
76210;SDS011;65003;49.518;11.280;2023-02-08T09:46:42;27.83;;;15.67;;
76210;SDS011;65003;49.518;11.280;2023-02-08T09:49:09;21.43;;;13.80;;
76210;SDS011;65003;49.518;11.280;2023-02-08T09:51:38;26.37;;;15.07;;
76210;SDS011;65003;49.518;11.280;2023-02-08T09:54:12;23.20;;;13.97;;
76210;SDS011;65003;49.518;11.280;2023-02-08T09:56:43;21.83;;;13.07;;
76210;SDS011;65003;49.518;11.280;2023-02-08T09:59:12;24.40;;;13.70;;
76210;SDS011;65003;49.518;11.280;2023-02-08T10:01:40;23.77;;;13.60;;
76210;SDS011;65003;49.518;11.280;2023-02-08T10:04:09;23.87;;;14.30;;
76210;SDS011;65003;49.518;11.280;2023-02-08T10:06:40;26.43;;;13.90;;
76210;SDS011;65003;49.518;11.280;2023-02-08T10:09:08;25.03;;;15.27;;
76210;SDS011;65003;49.518;11.280;2023-02-08T10:11:39;23.10;;;13.70;;
76210;SDS011;65003;49.518;11.280;2023-02-08T10:14:28;22.13;;;13.53;;
76210;SDS011;65003;49.518;11.280;2023-02-08T10:17:04;21.43;;;13.77;;
76210;SDS011;65003;49.518;11.280;2023-02-08T10:19:37;21.37;;;13.93;;
76210;SDS011;65003;49.518;11.280;2023-02-08T10:23:16;19.93;;;13.93;;
76210;SDS011;65003;49.518;11.280;2023-02-08T10:27:30;25.70;;;14.90;;
76210;SDS011;65003;49.518;11.280;2023-02-08T10:30:13;25.50;;;15.37;;
76210;SDS011;65003;49.518;11.280;2023-02-08T10:35:30;24.90;;;14.07;;
76210;SDS011;65003;49.518;11.280;2023-02-08T10:37:58;21.77;;;14.03;;
76210;SDS011;65003;49.518;11.280;2023-02-08T10:40:28;24.53;;;14.27;;
76210;SDS011;65003;49.518;11.280;2023-02-08T10:42:59;20.27;;;13.63;;
76210;SDS011;65003;49.518;11.280;2023-02-08T10:45:28;23.57;;;13.63;;
76210;SDS011;65003;49.518;11.280;2023-02-08T10:47:54;21.07;;;13.83;;
76210;SDS011;65003;49.518;11.280;2023-02-08T10:53:13;21.60;;;12.77;;
76210;SDS011;65003;49.518;11.280;2023-02-08T10:55:39;24.37;;;13.27;;
76210;SDS011;65003;49.518;11.280;2023-02-08T10:58:05;21.03;;;12.67;;
76210;SDS011;65003;49.518;11.280;2023-02-08T11:00:33;20.50;;;12.83;;
76210;SDS011;65003;49.518;11.280;2023-02-08T11:03:01;19.67;;;12.57;;
76210;SDS011;65003;49.518;11.280;2023-02-08T11:05:33;19.90;;;12.60;;
76210;SDS011;65003;49.518;11.280;2023-02-08T11:08:04;23.00;;;12.93;;
76210;SDS011;65003;49.518;11.280;2023-02-08T11:10:31;21.30;;;12.83;;
76210;SDS011;65003;49.518;11.280;2023-02-08T11:12:59;20.20;;;12.60;;
76210;SDS011;65003;49.518;11.280;2023-02-08T11:15:34;19.70;;;13.37;;
76210;SDS011;65003;49.518;11.280;2023-02-08T11:18:03;22.70;;;13.13;;
76210;SDS011;65003;49.518;11.280;2023-02-08T11:20:34;20.23;;;12.33;;
76210;SDS011;65003;49.518;11.280;2023-02-08T11:22:59;23.03;;;13.87;;
76210;SDS011;65003;49.518;11.280;2023-02-08T11:25:30;19.00;;;12.83;;
76210;SDS011;65003;49.518;11.280;2023-02-08T11:27:55;20.80;;;12.77;;
76210;SDS011;65003;49.518;11.280;2023-02-08T11:30:22;23.10;;;13.60;;
76210;SDS011;65003;49.518;11.280;2023-02-08T11:33:06;20.13;;;12.17;;
76210;SDS011;65003;49.518;11.280;2023-02-08T11:35:21;20.70;;;12.40;;
76210;SDS011;65003;49.518;11.280;2023-02-08T11:37:48;19.67;;;11.47;;
76210;SDS011;65003;49.518;11.280;2023-02-08T11:40:17;20.33;;;11.43;;
76210;SDS011;65003;49.518;11.280;2023-02-08T11:42:42;18.43;;;11.30;;
76210;SDS011;65003;49.518;11.280;2023-02-08T11:47:45;19.80;;;12.17;;
76210;SDS011;65003;49.518;11.280;2023-02-08T11:50:16;19.30;;;12.17;;
76210;SDS011;65003;49.518;11.280;2023-02-08T11:52:38;22.80;;;12.10;;
76210;SDS011;65003;49.518;11.280;2023-02-08T11:55:13;21.43;;;11.97;;
76210;SDS011;65003;49.518;11.280;2023-02-08T11:57:50;18.37;;;11.53;;
76210;SDS011;65003;49.518;11.280;2023-02-08T12:00:17;21.27;;;10.83;;
76210;SDS011;65003;49.518;11.280;2023-02-08T12:02:43;18.97;;;12.10;;
76210;SDS011;65003;49.518;11.280;2023-02-08T12:05:12;19.20;;;11.23;;
76210;SDS011;65003;49.518;11.280;2023-02-08T12:07:42;18.17;;;11.50;;
76210;SDS011;65003;49.518;11.280;2023-02-08T12:12:48;22.90;;;12.23;;
76210;SDS011;65003;49.518;11.280;2023-02-08T12:15:15;20.33;;;12.30;;
76210;SDS011;65003;49.518;11.280;2023-02-08T12:17:41;20.57;;;12.80;;
76210;SDS011;65003;49.518;11.280;2023-02-08T12:20:13;17.52;;;11.57;;
76210;SDS011;65003;49.518;11.280;2023-02-08T12:22:59;19.93;;;12.37;;
76210;SDS011;65003;49.518;11.280;2023-02-08T12:25:38;21.53;;;12.80;;
76210;SDS011;65003;49.518;11.280;2023-02-08T12:28:21;21.47;;;11.57;;
76210;SDS011;65003;49.518;11.280;2023-02-08T12:31:04;15.30;;;10.33;;
76210;SDS011;65003;49.518;11.280;2023-02-08T12:33:48;20.63;;;11.23;;
76210;SDS011;65003;49.518;11.280;2023-02-08T12:37:38;15.43;;;10.40;;
76210;SDS011;65003;49.518;11.280;2023-02-08T12:39:43;17.03;;;10.40;;
76210;SDS011;65003;49.518;11.280;2023-02-08T12:42:33;16.70;;;10.53;;
76210;SDS011;65003;49.518;11.280;2023-02-08T12:45:12;19.97;;;10.97;;
76210;SDS011;65003;49.518;11.280;2023-02-08T12:47:44;19.87;;;10.10;;
76210;SDS011;65003;49.518;11.280;2023-02-08T12:50:32;16.93;;;10.63;;
76210;SDS011;65003;49.518;11.280;2023-02-08T12:53:19;17.50;;;10.07;;
76210;SDS011;65003;49.518;11.280;2023-02-08T12:55:44;16.73;;;10.53;;
76210;SDS011;65003;49.518;11.280;2023-02-08T13:00:55;21.13;;;10.77;;
76210;SDS011;65003;49.518;11.280;2023-02-08T13:04:00;18.03;;;11.07;;
76210;SDS011;65003;49.518;11.280;2023-02-08T13:06:14;20.17;;;11.93;;
76210;SDS011;65003;49.518;11.280;2023-02-08T13:08:40;19.97;;;11.43;;
76210;SDS011;65003;49.518;11.280;2023-02-08T13:11:10;17.53;;;10.00;;
76210;SDS011;65003;49.518;11.280;2023-02-08T13:13:35;18.13;;;10.03;;
76210;SDS011;65003;49.518;11.280;2023-02-08T13:16:04;18.83;;;9.47;;
76210;SDS011;65003;49.518;11.280;2023-02-08T13:18:36;20.53;;;10.53;;
76210;SDS011;65003;49.518;11.280;2023-02-08T13:21:02;18.27;;;9.37;;
76210;SDS011;65003;49.518;11.280;2023-02-08T13:23:29;16.70;;;9.80;;
76210;SDS011;65003;49.518;11.280;2023-02-08T13:26:12;18.53;;;10.57;;
76210;SDS011;65003;49.518;11.280;2023-02-08T13:28:36;18.83;;;10.77;;
76210;SDS011;65003;49.518;11.280;2023-02-08T13:31:05;17.10;;;10.80;;
76210;SDS011;65003;49.518;11.280;2023-02-08T13:33:35;24.00;;;10.63;;
76210;SDS011;65003;49.518;11.280;2023-02-08T13:36:05;17.97;;;10.70;;
76210;SDS011;65003;49.518;11.280;2023-02-08T13:38:33;18.97;;;10.60;;
76210;SDS011;65003;49.518;11.280;2023-02-08T13:41:01;19.43;;;11.03;;
76210;SDS011;65003;49.518;11.280;2023-02-08T13:43:31;17.10;;;10.50;;
76210;SDS011;65003;49.518;11.280;2023-02-08T13:45:55;18.17;;;10.77;;
76210;SDS011;65003;49.518;11.280;2023-02-08T13:48:22;16.57;;;10.60;;
76210;SDS011;65003;49.518;11.280;2023-02-08T13:50:50;19.07;;;11.13;;
76210;SDS011;65003;49.518;11.280;2023-02-08T13:55:57;16.87;;;10.37;;
76210;SDS011;65003;49.518;11.280;2023-02-08T13:58:27;17.87;;;9.93;;
76210;SDS011;65003;49.518;11.280;2023-02-08T14:01:18;16.60;;;10.50;;
76210;SDS011;65003;49.518;11.280;2023-02-08T14:06:46;18.23;;;9.73;;
76210;SDS011;65003;49.518;11.280;2023-02-08T14:09:38;19.53;;;11.13;;
76210;SDS011;65003;49.518;11.280;2023-02-08T14:12:03;20.03;;;12.23;;
76210;SDS011;65003;49.518;11.280;2023-02-08T14:14:30;16.40;;;10.03;;
76210;SDS011;65003;49.518;11.280;2023-02-08T14:19:39;15.43;;;10.47;;
76210;SDS011;65003;49.518;11.280;2023-02-08T14:22:14;18.83;;;11.20;;
76210;SDS011;65003;49.518;11.280;2023-02-08T14:24:43;18.50;;;11.13;;
76210;SDS011;65003;49.518;11.280;2023-02-08T14:27:15;17.00;;;11.20;;
76210;SDS011;65003;49.518;11.280;2023-02-08T14:29:36;16.77;;;9.67;;
76210;SDS011;65003;49.518;11.280;2023-02-08T14:32:02;17.80;;;10.13;;
76210;SDS011;65003;49.518;11.280;2023-02-08T14:34:30;15.70;;;9.73;;
76210;SDS011;65003;49.518;11.280;2023-02-08T14:36:58;17.37;;;10.37;;
76210;SDS011;65003;49.518;11.280;2023-02-08T14:39:27;17.93;;;10.50;;
76210;SDS011;65003;49.518;11.280;2023-02-08T14:41:54;19.17;;;9.83;;
76210;SDS011;65003;49.518;11.280;2023-02-08T14:46:59;15.47;;;10.07;;
76210;SDS011;65003;49.518;11.280;2023-02-08T14:49:26;19.43;;;10.60;;
76210;SDS011;65003;49.518;11.280;2023-02-08T14:51:55;14.83;;;10.37;;
76210;SDS011;65003;49.518;11.280;2023-02-08T14:54:26;17.50;;;10.53;;
76210;SDS011;65003;49.518;11.280;2023-02-08T14:56:54;19.47;;;10.47;;